createdAt,value
2022-11-03T00:02:18.273Z,28.10
2022-11-03T00:04:46.878Z,29.30
2022-11-03T00:07:21.509Z,30.90
2022-11-03T00:09:49.904Z,26.80
2022-11-03T00:12:18.023Z,27.40
2022-11-03T00:14:45.854Z,26.80
2022-11-03T00:17:13.697Z,29.40
2022-11-03T00:19:41.565Z,26.30
2022-11-03T00:22:09.419Z,26.60
2022-11-03T00:24:37.297Z,29.90
2022-11-03T00:27:05.184Z,26.00
2022-11-03T00:29:33.383Z,28.20
2022-11-03T00:32:01.539Z,26.40
2022-11-03T00:34:29.419Z,27.50
2022-11-03T00:36:57.900Z,25.40
2022-11-03T00:39:25.881Z,25.40
2022-11-03T00:42:34.462Z,28.60
2022-11-03T00:45:02.363Z,28.30
2022-11-03T00:47:30.228Z,27.30
2022-11-03T00:49:58.160Z,24.30
2022-11-03T00:52:25.982Z,23.40
2022-11-03T00:54:55.387Z,21.10
2022-11-03T00:57:23.583Z,22.50
2022-11-03T01:03:14.620Z,25.40
2022-11-03T01:06:02.555Z,25.10
2022-11-03T01:08:34.539Z,23.80
2022-11-03T01:11:33.314Z,33.60
2022-11-03T01:14:01.514Z,27.90
2022-11-03T01:16:30.828Z,30.30
2022-11-03T01:18:59.485Z,31.20
2022-11-03T01:21:27.968Z,31.20
2022-11-03T01:23:56.180Z,32.80
2022-11-03T01:26:24.086Z,31.90
2022-11-03T01:28:54.341Z,28.90
2022-11-03T01:31:24.319Z,30.50
2022-11-03T01:33:53.854Z,28.40
2022-11-03T01:36:22.220Z,30.50
2022-11-03T01:38:50.570Z,32.00
2022-11-03T01:41:22.785Z,28.40
2022-11-03T01:44:12.487Z,35.80
2022-11-03T01:46:53.228Z,32.20
2022-11-03T01:49:33.301Z,31.20
2022-11-03T01:52:11.414Z,35.40
2022-11-03T01:54:42.623Z,36.60
2022-11-03T01:57:19.754Z,33.10
2022-11-03T01:59:48.639Z,33.40
2022-11-03T02:02:18.399Z,31.50
2022-11-03T02:04:47.172Z,32.00
2022-11-03T02:07:51.077Z,30.20
2022-11-03T02:10:19.001Z,33.60
2022-11-03T02:12:48.260Z,32.40
2022-11-03T02:15:19.106Z,37.60
2022-11-03T02:17:49.044Z,38.60
2022-11-03T02:20:24.027Z,36.20
2022-11-03T02:23:20.578Z,33.40
2022-11-03T02:25:52.310Z,34.80
2022-11-03T02:28:24.324Z,33.70
2022-11-03T02:31:19.903Z,36.00
2022-11-03T02:34:02.724Z,34.60
2022-11-03T02:36:46.354Z,41.50
2022-11-03T02:39:25.679Z,35.90
2022-11-03T02:41:56.900Z,33.40
2022-11-03T02:44:27.107Z,34.00
2022-11-03T02:46:59.264Z,35.30
2022-11-03T02:49:27.634Z,31.60
2022-11-03T02:52:03.556Z,30.70
2022-11-03T02:54:44.631Z,29.30
2022-11-03T02:57:22.016Z,31.80
2022-11-03T03:00:05.872Z,35.50
2022-11-03T03:03:04.307Z,26.70
2022-11-03T03:05:35.367Z,30.50
2022-11-03T03:08:07.301Z,28.50
2022-11-03T03:10:45.212Z,25.30
2022-11-03T03:13:16.961Z,25.40
2022-11-03T03:15:53.638Z,22.10
2022-11-03T03:18:42.309Z,26.10
2022-11-03T03:21:19.643Z,21.90
2022-11-03T03:24:09.962Z,24.70
2022-11-03T03:26:44.712Z,26.20
2022-11-03T03:29:24.952Z,25.20
2022-11-03T03:32:06.664Z,23.40
2022-11-03T03:34:37.818Z,24.10
2022-11-03T03:37:07.757Z,23.10
2022-11-03T03:39:40.949Z,27.90
2022-11-03T03:42:11.474Z,24.00
2022-11-03T03:44:42.696Z,24.70
2022-11-03T03:47:17.733Z,26.40
2022-11-03T03:49:45.650Z,24.70
2022-11-03T03:52:15.648Z,24.90
2022-11-03T03:54:43.546Z,25.40
2022-11-03T03:57:20.681Z,24.60
2022-11-03T03:59:48.745Z,25.00
2022-11-03T04:02:17.133Z,27.30
2022-11-03T04:04:45.214Z,25.70
2022-11-03T04:07:32.267Z,23.70
2022-11-03T04:10:00.148Z,25.00
2022-11-03T04:12:46.553Z,28.80
2022-11-03T04:15:32.837Z,31.10
2022-11-03T04:18:19.555Z,28.70
2022-11-03T04:21:06.301Z,26.20
2022-11-03T04:23:34.202Z,22.40
2022-11-03T04:26:02.235Z,24.40
2022-11-03T04:28:30.271Z,26.70
2022-11-03T04:30:59.703Z,22.80
2022-11-03T04:33:29.723Z,25.00
2022-11-03T04:36:00.664Z,22.60
2022-11-03T04:38:30.198Z,23.60
2022-11-03T04:40:59.038Z,26.80
2022-11-03T04:43:37.402Z,22.70
2022-11-03T04:46:09.340Z,22.70
2022-11-03T04:48:37.554Z,26.40
2022-11-03T04:51:17.980Z,25.40
2022-11-03T04:53:51.147Z,24.60
2022-11-03T04:56:22.838Z,24.40
2022-11-03T04:58:52.037Z,25.50
2022-11-03T05:01:24.936Z,24.20
2022-11-03T05:03:55.346Z,25.40
2022-11-03T05:06:28.255Z,25.90
2022-11-03T05:09:02.903Z,25.90
2022-11-03T05:11:35.304Z,29.40
2022-11-03T05:14:18.336Z,29.90
2022-11-03T05:16:47.479Z,28.10
2022-11-03T05:19:27.403Z,25.70
2022-11-03T05:21:58.040Z,26.50
2022-11-03T05:24:27.194Z,27.10
2022-11-03T05:26:58.108Z,25.30
2022-11-03T05:29:35.440Z,27.20
2022-11-03T05:32:11.025Z,27.20
2022-11-03T05:34:43.458Z,31.70
2022-11-03T05:37:26.732Z,25.60
2022-11-03T05:40:00.628Z,31.50
2022-11-03T05:42:35.778Z,26.10
2022-11-03T05:47:55.610Z,26.20
2022-11-03T05:50:28.613Z,28.10
2022-11-03T05:53:38.577Z,30.80
2022-11-03T05:56:07.636Z,23.40
2022-11-03T05:58:38.662Z,23.70
2022-11-03T06:01:17.177Z,24.30
2022-11-03T06:03:47.286Z,25.80
2022-11-03T06:06:30.864Z,24.00
2022-11-03T06:09:03.292Z,21.80
2022-11-03T06:11:37.246Z,25.30
2022-11-03T06:14:24.135Z,24.90
2022-11-03T06:16:57.267Z,25.20
2022-11-03T06:19:37.373Z,25.90
2022-11-03T06:22:14.297Z,22.30
2022-11-03T06:24:42.521Z,28.10
2022-11-03T06:27:15.958Z,24.10
2022-11-03T06:29:49.409Z,24.60
2022-11-03T06:32:17.992Z,24.80
2022-11-03T06:34:52.220Z,26.50
2022-11-03T06:37:23.482Z,23.40
2022-11-03T06:39:58.407Z,24.10
2022-11-03T06:42:31.934Z,28.50
2022-11-03T06:45:02.897Z,29.00
2022-11-03T06:47:30.864Z,24.60
2022-11-03T06:50:00.924Z,24.60
2022-11-03T06:52:31.470Z,24.20
2022-11-03T06:55:05.494Z,24.20
2022-11-03T06:57:38.261Z,31.50
2022-11-03T07:00:39.686Z,31.30
2022-11-03T07:03:33.173Z,33.20
2022-11-03T07:06:21.347Z,27.10
2022-11-03T07:08:58.982Z,23.20
2022-11-03T07:11:29.926Z,22.10
2022-11-03T07:14:09.740Z,21.20
2022-11-03T07:16:40.464Z,25.60
2022-11-03T07:19:30.376Z,26.00
2022-11-03T07:22:04.741Z,31.20
2022-11-03T07:24:39.049Z,27.60
2022-11-03T07:27:19.958Z,25.80
2022-11-03T07:29:51.514Z,25.60
2022-11-03T07:32:22.515Z,22.70
2022-11-03T07:34:53.770Z,21.30
2022-11-03T07:37:25.641Z,25.20
2022-11-03T07:39:54.115Z,23.10
2022-11-03T07:42:24.507Z,22.90
2022-11-03T07:44:55.986Z,25.20
2022-11-03T07:47:28.727Z,23.70
2022-11-03T07:49:56.857Z,26.20
2022-11-03T07:52:28.074Z,21.60
2022-11-03T07:54:59.350Z,23.20
2022-11-03T07:57:34.496Z,28.00
2022-11-03T08:00:13.178Z,26.30
2022-11-03T08:02:57.173Z,22.70
2022-11-03T08:05:27.060Z,21.90
2022-11-03T08:07:55.142Z,25.30
2022-11-03T08:10:31.419Z,24.40
2022-11-03T08:13:00.623Z,25.40
2022-11-03T08:15:28.799Z,22.60
2022-11-03T08:17:57.168Z,23.70
2022-11-03T08:20:25.484Z,22.30
2022-11-03T08:23:19.566Z,23.00
2022-11-03T08:25:42.160Z,20.60
2022-11-03T08:28:11.509Z,23.70
2022-11-03T08:30:39.755Z,20.20
2022-11-03T08:33:09.430Z,27.70
2022-11-03T08:35:38.807Z,21.70
2022-11-03T08:38:07.144Z,23.60
2022-11-03T08:40:37.092Z,22.20
2022-11-03T08:43:06.603Z,21.70
2022-11-03T08:45:34.857Z,24.00
2022-11-03T08:48:03.853Z,25.80
2022-11-03T08:50:32.695Z,23.10
2022-11-03T08:53:02.386Z,26.20
2022-11-03T08:55:35.759Z,35.00
2022-11-03T08:58:05.795Z,23.50
2022-11-03T09:00:41.108Z,29.80
2022-11-03T09:03:11.605Z,30.80
2022-11-03T09:05:40.754Z,22.70
2022-11-03T09:11:00.065Z,21.70
2022-11-03T09:13:28.261Z,24.20
2022-11-03T09:15:57.856Z,25.80
2022-11-03T09:18:25.979Z,23.00
2022-11-03T09:20:54.352Z,26.30
2022-11-03T09:23:26.475Z,26.90
2022-11-03T09:25:55.630Z,25.90
2022-11-03T09:28:24.083Z,33.00
2022-11-03T09:30:52.898Z,37.20
2022-11-03T09:33:21.966Z,29.30
2022-11-03T09:35:50.154Z,44.10
2022-11-03T09:38:19.160Z,33.30
2022-11-03T09:43:17.492Z,25.80
2022-11-03T09:45:45.742Z,26.90
2022-11-03T09:48:14.494Z,28.10
2022-11-03T09:50:43.105Z,25.30
2022-11-03T09:53:14.552Z,33.00
2022-11-03T09:55:42.923Z,31.40
2022-11-03T09:58:15.182Z,33.50
2022-11-03T10:00:46.619Z,29.20
2022-11-03T10:03:18.311Z,33.90
2022-11-03T10:05:49.196Z,32.10
2022-11-03T10:08:37.895Z,31.40
2022-11-03T10:11:09.463Z,28.50
2022-11-03T10:13:41.571Z,29.80
2022-11-03T10:16:15.154Z,29.70
2022-11-03T10:18:45.083Z,32.90
2022-11-03T10:21:13.399Z,28.70
2022-11-03T10:23:41.601Z,33.70
2022-11-03T10:26:19.226Z,29.90
2022-11-03T10:29:05.797Z,27.70
2022-11-03T10:31:38.962Z,34.60
2022-11-03T10:34:28.538Z,35.10
2022-11-03T10:37:17.120Z,31.80
2022-11-03T10:39:46.250Z,29.60
2022-11-03T10:42:35.761Z,34.40
2022-11-03T10:45:20.044Z,29.10
2022-11-03T10:48:02.540Z,34.10
2022-11-03T10:50:30.947Z,36.40
2022-11-03T10:52:59.182Z,31.20
2022-11-03T10:55:28.724Z,31.00
2022-11-03T10:57:59.286Z,30.50
2022-11-03T11:00:30.469Z,34.20
2022-11-03T11:03:02.231Z,36.00
2022-11-03T11:05:30.727Z,38.60
2022-11-03T11:07:59.530Z,49.70
2022-11-03T11:10:31.775Z,43.00
2022-11-03T11:13:18.825Z,41.10
2022-11-03T11:15:49.359Z,45.80
2022-11-03T11:18:39.222Z,46.60
2022-11-03T11:21:17.717Z,42.70
2022-11-03T11:23:48.227Z,47.50
2022-11-03T11:26:31.503Z,36.70
2022-11-03T11:29:08.957Z,42.50
2022-11-03T11:31:37.809Z,31.40
2022-11-03T11:34:23.805Z,34.00
2022-11-03T11:36:55.652Z,28.10
2022-11-03T11:39:24.734Z,28.70
2022-11-03T11:42:15.744Z,35.40
2022-11-03T11:45:00.880Z,37.00
2022-11-03T11:47:32.049Z,38.60
2022-11-03T11:50:11.042Z,34.90
2022-11-03T11:52:51.426Z,38.10
2022-11-03T11:55:38.387Z,36.40
2022-11-03T11:58:21.306Z,30.50
2022-11-03T12:01:05.507Z,26.20
2022-11-03T12:03:40.322Z,24.00
2022-11-03T12:06:15.243Z,51.80
2022-11-03T12:08:44.152Z,44.60
2022-11-03T12:11:13.416Z,26.10
2022-11-03T12:13:47.686Z,23.60
2022-11-03T12:16:39.271Z,29.80
2022-11-03T12:19:35.613Z,23.60
2022-11-03T12:22:34.712Z,26.70
2022-11-03T12:25:10.037Z,32.60
2022-11-03T12:27:40.337Z,30.20
2022-11-03T12:30:20.631Z,33.50
2022-11-03T12:32:50.076Z,29.20
2022-11-03T12:35:18.554Z,36.20
2022-11-03T12:37:49.465Z,34.50
2022-11-03T12:40:20.100Z,37.40
2022-11-03T12:42:48.193Z,63.80
2022-11-03T12:45:17.374Z,33.30
2022-11-03T12:47:45.408Z,33.80
2022-11-03T12:50:13.899Z,33.70
2022-11-03T12:52:41.917Z,36.10
2022-11-03T12:55:10.406Z,34.60
2022-11-03T12:57:38.450Z,38.60
2022-11-03T13:00:09.070Z,34.20
2022-11-03T13:02:40.374Z,40.10
2022-11-03T13:05:09.163Z,33.80
2022-11-03T13:07:37.996Z,38.40
2022-11-03T13:10:06.692Z,41.50
2022-11-03T13:12:37.269Z,48.70
2022-11-03T13:15:07.635Z,37.10
2022-11-03T13:18:07.297Z,36.60
2022-11-03T13:20:25.743Z,42.60
2022-11-03T13:22:53.976Z,34.90
2022-11-03T13:25:24.462Z,36.30
2022-11-03T13:27:56.169Z,32.50
2022-11-03T13:30:26.061Z,32.60
2022-11-03T13:32:55.588Z,32.30
2022-11-03T13:35:27.164Z,46.90
2022-11-03T13:37:55.501Z,35.90
2022-11-03T13:43:14.258Z,39.70
2022-11-03T13:45:43.999Z,35.10
2022-11-03T13:51:05.579Z,43.10
2022-11-03T13:56:28.398Z,39.70
2022-11-03T14:04:46.890Z,49.80
2022-11-03T14:07:15.832Z,48.60
2022-11-03T14:09:50.316Z,40.10
2022-11-03T14:15:01.407Z,41.70
2022-11-03T14:17:30.204Z,33.00
2022-11-03T14:20:04.488Z,39.10
2022-11-03T14:22:37.156Z,38.70
2022-11-03T14:25:07.935Z,32.40
2022-11-03T14:27:37.506Z,36.70
2022-11-03T14:30:08.235Z,32.90
2022-11-03T14:32:36.993Z,38.40
2022-11-03T14:35:08.835Z,37.80
2022-11-03T14:37:37.032Z,42.40
2022-11-03T14:40:29.187Z,42.00
2022-11-03T14:43:02.243Z,42.40
2022-11-03T14:45:32.071Z,49.70
2022-11-03T14:48:02.287Z,64.50
2022-11-03T14:50:31.655Z,37.20
2022-11-03T14:53:00.181Z,40.70
2022-11-03T14:55:29.694Z,35.50
2022-11-03T14:58:00.775Z,34.80
2022-11-03T15:00:29.026Z,32.50
2022-11-03T15:02:57.177Z,35.90
2022-11-03T15:05:46.429Z,36.40
2022-11-03T15:08:18.056Z,36.50
2022-11-03T15:10:46.980Z,38.10
2022-11-03T15:13:19.145Z,42.20
2022-11-03T15:15:47.764Z,40.20
2022-11-03T15:18:16.272Z,39.50
2022-11-03T15:20:44.631Z,39.80
2022-11-03T15:26:03.843Z,42.90
2022-11-03T15:28:32.294Z,45.10
2022-11-03T15:31:03.546Z,62.70
2022-11-03T15:33:32.961Z,44.40
2022-11-03T15:36:01.794Z,57.90
2022-11-03T15:38:31.295Z,37.10
2022-11-03T15:41:15.786Z,39.60
2022-11-03T15:43:48.976Z,41.50
2022-11-03T15:46:18.243Z,50.00
2022-11-03T15:48:51.657Z,52.20
2022-11-03T15:51:20.787Z,45.00
2022-11-03T15:53:54.980Z,47.90
2022-11-03T15:56:27.657Z,48.90
2022-11-03T15:59:00.866Z,49.20
2022-11-03T16:01:29.662Z,52.10
2022-11-03T16:03:58.797Z,57.50
2022-11-03T16:06:40.538Z,133.70
2022-11-03T16:09:15.028Z,107.40
2022-11-03T16:11:43.793Z,47.80
2022-11-03T16:14:12.301Z,50.30
2022-11-03T16:16:53.472Z,78.30
2022-11-03T16:19:22.533Z,82.30
2022-11-03T16:21:51.766Z,62.30
2022-11-03T16:24:19.827Z,59.00
2022-11-03T16:26:47.839Z,65.60
2022-11-03T16:29:15.794Z,66.70
2022-11-03T16:31:43.847Z,65.40
2022-11-03T16:34:12.315Z,63.90
2022-11-03T16:36:40.446Z,73.70
2022-11-03T16:39:09.691Z,81.10
2022-11-03T16:41:39.413Z,83.80
2022-11-03T16:44:09.055Z,85.40
2022-11-03T16:46:38.107Z,71.80
2022-11-03T16:49:06.088Z,61.80
2022-11-03T16:51:34.558Z,60.90
2022-11-03T16:54:02.986Z,53.40
2022-11-03T16:56:31.628Z,53.40
2022-11-03T16:58:59.619Z,50.90
2022-11-03T17:01:28.760Z,52.00
2022-11-03T17:03:57.194Z,49.60
2022-11-03T17:06:25.482Z,52.10
2022-11-03T17:08:56.732Z,51.60
2022-11-03T17:11:39.213Z,48.20
2022-11-03T17:14:13.850Z,46.10
2022-11-03T17:16:46.775Z,50.70
2022-11-03T17:19:16.444Z,52.10
2022-11-03T17:21:46.024Z,51.30
2022-11-03T17:24:15.511Z,68.60
2022-11-03T17:26:57.695Z,68.60
2022-11-03T17:29:39.807Z,54.00
2022-11-03T17:32:15.938Z,49.30
2022-11-03T17:37:14.397Z,53.10
2022-11-03T17:39:43.482Z,49.60
2022-11-03T17:42:21.636Z,47.00
2022-11-03T17:44:51.676Z,55.70
2022-11-03T17:47:20.692Z,54.20
2022-11-03T17:49:53.892Z,52.80
2022-11-03T17:52:27.874Z,54.10
2022-11-03T17:54:59.847Z,42.40
2022-11-03T17:57:28.797Z,48.80
2022-11-03T17:59:59.250Z,54.30
2022-11-03T18:02:31.146Z,42.60
2022-11-03T18:05:14.087Z,42.50
2022-11-03T18:07:44.961Z,43.70
2022-11-03T18:10:14.504Z,44.40
2022-11-03T18:13:07.753Z,49.50
2022-11-03T18:15:38.951Z,50.30
2022-11-03T18:18:34.811Z,49.20
2022-11-03T18:23:34.343Z,52.70
2022-11-03T18:26:04.671Z,49.50
2022-11-03T18:28:32.756Z,49.20
2022-11-03T18:31:01.478Z,45.40
2022-11-03T18:33:31.080Z,50.50
2022-11-03T18:36:03.069Z,47.10
2022-11-03T18:38:31.012Z,40.40
2022-11-03T18:40:59.522Z,43.60
2022-11-03T18:43:30.185Z,45.70
2022-11-03T18:45:58.622Z,44.90
2022-11-03T18:48:27.798Z,47.10
2022-11-03T18:50:57.324Z,47.20
2022-11-03T18:53:27.151Z,47.00
2022-11-03T18:56:00.085Z,44.20
2022-11-03T18:58:33.225Z,47.10
2022-11-03T19:01:01.302Z,41.00
2022-11-03T19:03:33.678Z,41.10
2022-11-03T19:06:01.768Z,50.60
2022-11-03T19:08:33.037Z,46.50
2022-11-03T19:11:03.878Z,48.50
2022-11-03T19:13:44.468Z,52.90
2022-11-03T19:16:16.454Z,53.60
2022-11-03T19:18:45.880Z,58.20
2022-11-03T19:21:14.029Z,61.90
2022-11-03T19:23:47.620Z,64.70
2022-11-03T19:26:21.094Z,68.10
2022-11-03T19:28:53.243Z,70.50
2022-11-03T19:31:28.993Z,75.20
2022-11-03T19:33:58.223Z,70.90
2022-11-03T19:36:28.138Z,68.50
2022-11-03T19:38:56.925Z,71.10
2022-11-03T19:41:44.791Z,70.60
2022-11-03T19:44:13.935Z,69.90
2022-11-03T19:46:42.297Z,76.80
2022-11-03T19:49:14.505Z,69.70
2022-11-03T19:51:42.587Z,72.60
2022-11-03T19:54:16.797Z,71.60
2022-11-03T19:56:47.519Z,72.60
2022-11-03T19:59:17.106Z,67.70
2022-11-03T20:01:45.183Z,69.00
2022-11-03T20:04:13.311Z,62.60
2022-11-03T20:06:41.420Z,64.90
2022-11-03T20:09:16.713Z,67.50
2022-11-03T20:14:25.157Z,68.40
2022-11-03T20:17:00.733Z,70.50
2022-11-03T20:19:28.871Z,70.10
2022-11-03T20:21:59.418Z,74.10
2022-11-03T20:24:27.537Z,65.90
2022-11-03T20:26:56.252Z,71.10
2022-11-03T20:29:24.234Z,73.10
2022-11-03T20:31:52.712Z,64.40
2022-11-03T20:36:56.191Z,78.10
2022-11-03T20:39:27.630Z,71.70
2022-11-03T20:41:57.574Z,68.20
2022-11-03T20:44:27.727Z,75.60
2022-11-03T20:46:56.457Z,68.60
2022-11-03T20:49:26.224Z,71.60
2022-11-03T20:51:54.633Z,75.20
2022-11-03T20:54:22.572Z,74.20
2022-11-03T20:56:51.257Z,71.90
2022-11-03T20:59:23.228Z,71.80
2022-11-03T21:01:52.373Z,70.10
2022-11-03T21:04:21.221Z,73.90
2022-11-03T21:06:49.726Z,78.30
2022-11-03T21:09:19.477Z,101.70
2022-11-03T21:11:48.098Z,100.60
2022-11-03T21:14:21.877Z,93.20
2022-11-03T21:17:09.483Z,86.10
2022-11-03T21:19:57.402Z,83.50
2022-11-03T21:22:53.690Z,88.30
2022-11-03T21:25:24.106Z,78.20
2022-11-03T21:27:54.824Z,89.20
2022-11-03T21:30:23.733Z,82.60
2022-11-03T21:32:52.261Z,79.70
2022-11-03T21:35:22.112Z,81.30
2022-11-03T21:37:50.672Z,80.40
2022-11-03T21:40:19.768Z,77.80
2022-11-03T21:43:06.795Z,79.80
2022-11-03T21:45:35.581Z,81.70
2022-11-03T21:48:22.772Z,84.60
2022-11-03T21:50:51.123Z,70.60
2022-11-03T21:53:19.073Z,82.50
2022-11-03T21:55:48.757Z,79.40
2022-11-03T21:58:16.884Z,77.60
2022-11-03T22:00:47.676Z,83.80
2022-11-03T22:03:15.904Z,93.70
2022-11-03T22:05:43.811Z,82.90
2022-11-03T22:08:12.070Z,78.30
2022-11-03T22:10:42.461Z,82.90
2022-11-03T22:13:11.041Z,77.10
2022-11-03T22:15:58.037Z,66.50
2022-11-03T22:18:25.973Z,64.90
2022-11-03T22:21:12.652Z,66.90
2022-11-03T22:23:59.128Z,71.80
2022-11-03T22:26:45.632Z,67.10
2022-11-03T22:29:32.023Z,71.40
2022-11-03T22:32:00.149Z,77.60
2022-11-03T22:34:46.841Z,68.80
2022-11-03T22:37:15.244Z,71.50
2022-11-03T22:40:02.511Z,82.40
2022-11-03T22:42:48.996Z,78.20
2022-11-03T22:45:35.524Z,75.60
2022-11-03T22:48:04.894Z,82.60
2022-11-03T22:50:33.152Z,86.00
2022-11-03T22:53:22.156Z,91.80
2022-11-03T22:55:50.091Z,74.30
2022-11-03T22:58:18.071Z,65.90
2022-11-03T23:00:47.613Z,71.30
2022-11-03T23:03:15.771Z,75.90
2022-11-03T23:05:43.732Z,68.80
2022-11-03T23:08:11.742Z,70.40
2022-11-03T23:10:39.833Z,67.10
2022-11-03T23:13:07.957Z,75.00
2022-11-03T23:15:38.399Z,72.90
2022-11-03T23:18:24.831Z,80.10
2022-11-03T23:21:07.815Z,71.60
2022-11-03T23:23:56.487Z,65.10
2022-11-03T23:26:26.890Z,67.30
2022-11-03T23:28:56.231Z,72.00
2022-11-03T23:31:24.205Z,65.10
2022-11-03T23:33:52.517Z,76.10
2022-11-03T23:36:20.648Z,67.70
2022-11-03T23:38:48.599Z,71.60
2022-11-03T23:41:17.895Z,69.30
2022-11-03T23:43:47.539Z,63.60
2022-11-03T23:46:37.849Z,66.30
2022-11-03T23:49:06.794Z,65.90
2022-11-03T23:51:36.423Z,70.30
2022-11-03T23:54:07.693Z,72.70
2022-11-03T23:56:56.829Z,83.00
2022-11-03T23:59:25.799Z,78.60
